Time;durP1;ratioP1;P1;durP2;ratioP2;P2;SDS_P1;SDS_P2;PMS_P1;PMS_P2;Temp;Humidity;BMP_temperature;BMP_pressure;BME280_temperature;BME280_humidity;BME280_pressure;Samples;Min_cycle;Max_cycle;Signal;HPM_P1;HPM_P2
2023/03/18 00:00:31;;;;;;;15.67;11.10;;;13.70;58.00;;;;;;5075543;28;20179;-73
2023/03/18 00:02:57;;;;;;;16.50;11.87;;;13.60;63.80;;;;;;5093490;28;20202;-73
2023/03/18 00:05:23;;;;;;;17.40;11.57;;;13.60;72.70;;;;;;5093641;28;20204;-73
2023/03/18 00:07:49;;;;;;;18.57;11.90;;;13.50;77.60;;;;;;5093356;28;20221;-73
2023/03/18 00:10:15;;;;;;;19.47;12.57;;;13.40;86.40;;;;;;5093899;28;20167;-73
2023/03/18 00:12:42;;;;;;;20.53;12.37;;;13.40;91.70;;;;;;5093467;28;20259;-73
2023/03/18 00:15:11;;;;;;;16.30;11.67;;;13.40;90.90;;;;;;5071622;28;20250;-72
2023/03/18 00:17:38;;;;;;;18.43;12.70;;;13.40;92.00;;;;;;5073102;28;20218;-72
2023/03/18 00:20:05;;;;;;;17.70;12.47;;;13.30;92.70;;;;;;5071997;28;20271;-73
2023/03/18 00:22:36;;;;;;;18.43;12.90;;;13.30;95.50;;;;;;5073439;28;20179;-73
2023/03/18 00:25:04;;;;;;;19.47;12.40;;;13.20;96.50;;;;;;5071962;28;20228;-73
2023/03/18 00:27:30;;;;;;;19.77;13.13;;;13.20;98.10;;;;;;5073520;28;20171;-72
2023/03/18 00:29:56;;;;;;;14.70;11.97;;;13.30;98.80;;;;;;5073233;28;20169;-72
2023/03/18 00:32:24;;;;;;;21.07;12.77;;;13.20;99.90;;;;;;5073051;28;20183;-73
2023/03/18 00:34:49;;;;;;;20.50;14.07;;;13.20;99.90;;;;;;5071839;28;20183;-71
2023/03/18 00:37:18;;;;;;;20.23;13.20;;;13.10;99.90;;;;;;5073186;28;20169;-72
2023/03/18 00:39:45;;;;;;;18.83;12.83;;;13.10;99.90;;;;;;5073143;28;20562;-73
2023/03/18 00:42:12;;;;;;;19.33;14.10;;;13.10;99.90;;;;;;5072030;28;20521;-72
2023/03/18 00:44:38;;;;;;;23.10;14.63;;;13.10;99.90;;;;;;5073221;28;20235;-73
2023/03/18 00:47:04;;;;;;;20.87;15.40;;;13.00;99.90;;;;;;5072919;28;20534;-72
2023/03/18 00:49:30;;;;;;;19.60;14.67;;;13.10;99.90;;;;;;5072824;28;20865;-71
2023/03/18 00:51:56;;;;;;;24.27;15.20;;;13.10;99.90;;;;;;5071719;28;20177;-73
2023/03/18 00:54:23;;;;;;;19.40;15.13;;;13.10;99.90;;;;;;5073016;28;20168;-71
2023/03/18 00:56:49;;;;;;;21.37;14.40;;;13.00;99.90;;;;;;5073069;28;20168;-72
2023/03/18 00:59:15;;;;;;;20.10;14.63;;;12.90;99.90;;;;;;5072878;28;20225;-72
2023/03/18 01:01:41;;;;;;;23.50;15.40;;;12.80;99.90;;;;;;5072480;28;20231;-72
2023/03/18 01:04:07;;;;;;;19.30;14.90;;;12.80;99.90;;;;;;5072769;28;20220;-71
2023/03/18 01:06:35;;;;;;;23.97;16.03;;;12.80;99.90;;;;;;5073053;28;20212;-72
2023/03/18 01:09:03;;;;;;;24.83;16.13;;;12.80;99.90;;;;;;5072991;28;20175;-72
2023/03/18 01:11:29;;;;;;;22.90;16.03;;;12.80;99.90;;;;;;5072798;28;20214;-72
2023/03/18 01:13:55;;;;;;;23.00;15.23;;;12.80;99.90;;;;;;5072911;28;20608;-72
2023/03/18 01:16:21;;;;;;;21.30;15.90;;;12.80;99.90;;;;;;5088463;28;20223;-72
2023/03/18 01:18:47;;;;;;;20.00;16.43;;;12.70;99.90;;;;;;5093292;28;20214;-71
2023/03/18 01:21:13;;;;;;;20.43;14.77;;;12.70;99.90;;;;;;5097185;28;20273;-72
2023/03/18 01:23:39;;;;;;;20.73;14.70;;;12.70;99.90;;;;;;5096925;28;20168;-72
2023/03/18 01:26:05;;;;;;;20.90;15.50;;;12.70;99.90;;;;;;5096597;28;20214;-72
2023/03/18 01:28:31;;;;;;;22.77;15.33;;;12.60;99.90;;;;;;5096588;28;20171;-72
2023/03/18 01:30:57;;;;;;;18.33;14.30;;;12.60;99.90;;;;;;5096659;28;20187;-72
2023/03/18 01:33:26;;;;;;;21.47;15.53;;;12.60;99.90;;;;;;5096822;28;20213;-72
2023/03/18 01:35:54;;;;;;;21.50;15.47;;;12.60;99.90;;;;;;5096601;28;20218;-72
2023/03/18 01:38:20;;;;;;;20.80;15.67;;;12.60;99.90;;;;;;5096577;28;20263;-73
2023/03/18 01:40:46;;;;;;;19.83;15.07;;;12.60;99.90;;;;;;5096651;28;20179;-72
2023/03/18 01:43:23;;;;;;;22.57;15.87;;;12.70;99.90;;;;;;5096439;28;20523;-72
2023/03/18 01:45:57;;;;;;;21.70;15.53;;;12.70;99.90;;;;;;5096318;28;20210;-73
2023/03/18 01:48:27;;;;;;;20.43;15.57;;;12.60;99.90;;;;;;5096392;28;20168;-72
2023/03/18 01:50:58;;;;;;;22.30;15.10;;;12.60;99.90;;;;;;5096280;28;20583;-71
2023/03/18 01:53:27;;;;;;;24.70;15.97;;;12.60;99.90;;;;;;5096359;28;20183;-72
2023/03/18 01:55:56;;;;;;;24.43;15.47;;;12.60;99.90;;;;;;5078033;28;20565;-72
2023/03/18 01:58:26;;;;;;;18.17;14.80;;;12.60;99.90;;;;;;5095683;28;20199;-73
2023/03/18 02:00:58;;;;;;;24.90;15.73;;;12.50;99.90;;;;;;5096201;28;20172;-72
2023/03/18 02:03:26;;;;;;;21.37;14.80;;;12.50;99.90;;;;;;5095987;28;20229;-72
2023/03/18 02:05:52;;;;;;;19.83;15.37;;;12.50;99.90;;;;;;5095815;28;20218;-72
2023/03/18 02:08:17;;;;;;;22.73;15.77;;;12.50;99.90;;;;;;5096045;28;20156;-71
2023/03/18 02:10:44;;;;;;;19.47;15.00;;;12.40;99.90;;;;;;5095736;28;20175;-72
2023/03/18 02:13:11;;;;;;;20.83;15.10;;;12.40;99.90;;;;;;5095481;28;20203;-72
2023/03/18 02:16:03;;;;;;;26.17;14.83;;;12.40;99.90;;;;;;5095413;28;20229;-72
2023/03/18 02:18:34;;;;;;;17.97;14.47;;;12.40;99.90;;;;;;5094908;28;20215;-72
2023/03/18 02:21:14;;;;;;;16.23;12.93;;;12.50;99.90;;;;;;5077439;28;20657;-71
2023/03/18 02:24:18;;;;;;;22.87;13.17;;;12.50;99.90;;;;;;5095794;28;20180;-72
2023/03/18 02:27:18;;;;;;;14.63;12.13;;;12.50;99.90;;;;;;5077102;28;20183;-72
2023/03/18 02:29:44;;;;;;;15.77;11.73;;;12.50;99.90;;;;;;5095195;28;20160;-72
2023/03/18 02:32:11;;;;;;;17.33;12.30;;;12.40;99.90;;;;;;5095349;28;20206;-72
2023/03/18 02:34:39;;;;;;;19.73;11.77;;;12.40;99.90;;;;;;5095514;28;20168;-72
2023/03/18 02:37:06;;;;;;;16.17;11.67;;;12.50;99.90;;;;;;5095414;28;20176;-72
2023/03/18 02:39:33;;;;;;;14.57;10.77;;;12.50;99.90;;;;;;5095401;28;20168;-71
2023/03/18 02:41:59;;;;;;;15.77;11.07;;;12.50;99.90;;;;;;5076617;28;20199;-72
2023/03/18 02:44:25;;;;;;;16.97;11.43;;;12.40;99.90;;;;;;5095246;28;20220;-72
2023/03/18 02:46:57;;;;;;;16.50;11.97;;;12.40;99.90;;;;;;5095312;28;20179;-72
2023/03/18 02:49:26;;;;;;;17.67;11.63;;;12.50;99.90;;;;;;5095133;28;20164;-71
2023/03/18 02:51:53;;;;;;;15.57;11.47;;;12.40;99.90;;;;;;5095196;28;20194;-71
2023/03/18 02:54:25;;;;;;;18.33;12.17;;;12.40;99.90;;;;;;5095135;28;20160;-72
2023/03/18 02:56:51;;;;;;;19.53;13.10;;;12.30;99.90;;;;;;5094789;28;20175;-72
2023/03/18 02:59:18;;;;;;;17.30;13.17;;;12.30;99.90;;;;;;5094967;28;20214;-71
2023/03/18 03:01:45;;;;;;;18.37;13.07;;;12.20;99.90;;;;;;5094485;28;20249;-71
2023/03/18 03:04:12;;;;;;;17.53;13.57;;;12.30;99.90;;;;;;5076880;28;20199;-72
2023/03/18 03:06:38;;;;;;;18.67;12.03;;;12.20;99.90;;;;;;5094957;28;20175;-72
2023/03/18 03:09:05;;;;;;;16.77;12.23;;;12.20;99.90;;;;;;5094696;28;20183;-71
2023/03/18 03:11:32;;;;;;;18.73;13.17;;;12.20;99.90;;;;;;5094410;28;20626;-71
2023/03/18 03:13:57;;;;;;;19.83;13.07;;;12.10;99.90;;;;;;5094768;28;20172;-71
2023/03/18 03:16:23;;;;;;;15.77;12.73;;;12.10;99.90;;;;;;5094616;28;20269;-72
2023/03/18 03:18:49;;;;;;;20.70;13.13;;;12.00;99.90;;;;;;5094769;28;20172;-70
2023/03/18 03:21:15;;;;;;;18.23;13.37;;;11.90;99.90;;;;;;5094616;28;20199;-72
2023/03/18 03:23:43;;;;;;;18.03;13.00;;;11.90;99.90;;;;;;5076326;28;20220;-72
2023/03/18 03:26:09;;;;;;;17.60;13.57;;;11.80;99.90;;;;;;5094108;28;20278;-71
2023/03/18 03:28:35;;;;;;;19.50;12.90;;;11.80;99.90;;;;;;5094530;28;20178;-71
2023/03/18 03:31:00;;;;;;;18.43;12.77;;;11.80;99.90;;;;;;5094454;28;20264;-71
2023/03/18 03:33:27;;;;;;;16.40;12.33;;;11.70;99.90;;;;;;5094482;28;20196;-72
2023/03/18 03:35:53;;;;;;;15.03;12.03;;;11.70;99.90;;;;;;5094270;28;20168;-71
2023/03/18 03:38:18;;;;;;;15.57;12.17;;;11.60;99.90;;;;;;5094011;28;20164;-71
2023/03/18 03:40:45;;;;;;;18.20;11.80;;;11.50;99.90;;;;;;5093811;28;20634;-71
2023/03/18 03:43:13;;;;;;;15.07;11.53;;;11.50;99.90;;;;;;5093397;28;20631;-71
2023/03/18 03:45:39;;;;;;;13.40;11.80;;;11.50;99.90;;;;;;5094081;28;20204;-72
2023/03/18 03:48:05;;;;;;;16.17;12.47;;;11.40;99.90;;;;;;5094122;28;20172;-71
2023/03/18 03:50:31;;;;;;;14.23;11.67;;;11.40;99.90;;;;;;5093983;28;20175;-70
2023/03/18 03:52:57;;;;;;;17.53;11.43;;;11.50;99.90;;;;;;5076010;28;20272;-71
2023/03/18 03:55:23;;;;;;;15.20;12.10;;;11.40;99.90;;;;;;5093337;28;20264;-71
2023/03/18 03:57:50;;;;;;;15.70;12.03;;;11.40;99.90;;;;;;5093958;28;20615;-72
2023/03/18 04:00:20;;;;;;;15.07;12.10;;;11.40;99.90;;;;;;5093852;28;20191;-71
2023/03/18 04:02:47;;;;;;;13.37;11.07;;;11.40;99.90;;;;;;5093746;28;20223;-71
2023/03/18 04:05:16;;;;;;;20.70;12.40;;;11.40;99.90;;;;;;5075188;28;20637;-71
2023/03/18 04:07:42;;;;;;;13.90;12.07;;;11.30;99.90;;;;;;5093865;28;20179;-73
2023/03/18 04:10:10;;;;;;;15.73;12.20;;;11.30;99.90;;;;;;5093555;28;20168;-71
2023/03/18 04:12:37;;;;;;;15.30;11.73;;;11.30;99.90;;;;;;5075485;28;20175;-73
2023/03/18 04:15:05;;;;;;;16.77;12.83;;;11.30;99.90;;;;;;5093228;28;20586;-71
2023/03/18 04:17:31;;;;;;;15.43;12.27;;;11.30;99.90;;;;;;5093663;28;20164;-72
2023/03/18 04:19:57;;;;;;;16.30;13.23;;;11.20;99.90;;;;;;5093142;28;20191;-72
2023/03/18 04:22:23;;;;;;;16.10;12.57;;;11.30;99.90;;;;;;5093493;28;20623;-72
2023/03/18 04:24:49;;;;;;;16.83;12.67;;;11.30;99.90;;;;;;5092994;28;20203;-72
2023/03/18 04:27:15;;;;;;;16.23;12.90;;;11.20;99.90;;;;;;5093311;28;20176;-70
2023/03/18 04:29:41;;;;;;;17.30;12.87;;;11.20;99.90;;;;;;5093419;28;20190;-72
2023/03/18 04:32:06;;;;;;;18.70;13.27;;;11.20;99.90;;;;;;5093154;28;20172;-72
2023/03/18 04:34:32;;;;;;;16.47;13.03;;;11.10;99.90;;;;;;5075013;28;20259;-71
2023/03/18 04:36:58;;;;;;;17.40;13.77;;;11.10;99.90;;;;;;5092982;28;20304;-71
2023/03/18 04:39:23;;;;;;;17.73;13.83;;;11.10;99.90;;;;;;5093371;28;20168;-71
2023/03/18 04:41:49;;;;;;;18.20;13.73;;;11.10;99.90;;;;;;5092788;28;20190;-72
2023/03/18 04:44:16;;;;;;;19.77;15.13;;;11.00;99.90;;;;;;5093099;28;20629;-71
2023/03/18 04:46:42;;;;;;;21.17;14.90;;;11.00;99.90;;;;;;5093251;28;20160;-70
2023/03/18 04:49:08;;;;;;;19.23;14.63;;;11.00;99.90;;;;;;5092975;28;20179;-70
2023/03/18 04:51:33;;;;;;;18.40;14.83;;;11.00;99.90;;;;;;5092661;28;20186;-72
2023/03/18 04:53:59;;;;;;;19.03;14.97;;;11.00;99.90;;;;;;5077282;28;20171;-71
2023/03/18 04:56:25;;;;;;;18.80;14.67;;;10.90;99.90;;;;;;5097458;28;20292;-71
2023/03/18 04:58:50;;;;;;;19.07;15.17;;;11.00;99.90;;;;;;5097261;28;20205;-72
2023/03/18 05:01:16;;;;;;;18.03;14.30;;;10.90;99.90;;;;;;5097140;28;20252;-71
2023/03/18 05:03:42;;;;;;;22.07;15.63;;;10.90;99.90;;;;;;5096766;28;20171;-72
2023/03/18 05:06:15;;;;;;;20.30;14.47;;;10.80;99.90;;;;;;5096708;28;20741;-73
2023/03/18 05:08:41;;;;;;;23.33;16.07;;;10.80;99.90;;;;;;5078595;28;20225;-72
2023/03/18 05:11:06;;;;;;;24.17;16.20;;;10.80;99.90;;;;;;5096981;28;20172;-72
2023/03/18 05:13:32;;;;;;;22.30;15.67;;;10.90;99.90;;;;;;5096477;28;20168;-72
2023/03/18 05:15:58;;;;;;;21.13;16.37;;;11.00;99.90;;;;;;5096553;28;20735;-72
2023/03/18 05:18:23;;;;;;;23.57;15.33;;;11.00;99.90;;;;;;5096994;28;20168;-72
2023/03/18 05:20:49;;;;;;;19.77;15.40;;;11.00;99.90;;;;;;5096466;28;20172;-72
2023/03/18 05:23:15;;;;;;;19.37;15.70;;;11.10;99.90;;;;;;5078514;28;20164;-72
2023/03/18 05:25:41;;;;;;;21.73;16.43;;;11.20;99.90;;;;;;5096641;28;20199;-72
2023/03/18 05:28:06;;;;;;;21.90;15.90;;;11.20;99.90;;;;;;5096514;28;20193;-71
2023/03/18 05:30:33;;;;;;;23.37;15.77;;;11.10;99.90;;;;;;5096511;28;20172;-71
2023/03/18 05:32:58;;;;;;;22.30;16.13;;;11.10;99.90;;;;;;5096614;28;20170;-71
2023/03/18 05:35:24;;;;;;;21.60;16.73;;;10.90;99.90;;;;;;5096133;28;20168;-72
2023/03/18 05:37:50;;;;;;;21.27;16.20;;;10.90;99.90;;;;;;5096618;28;20167;-72
2023/03/18 05:40:16;;;;;;;20.17;16.20;;;10.80;99.90;;;;;;5096298;28;20175;-71
2023/03/18 05:42:42;;;;;;;19.93;16.27;;;10.80;99.90;;;;;;5096007;28;20166;-71
2023/03/18 05:45:07;;;;;;;25.80;16.20;;;10.70;99.90;;;;;;5095782;28;20257;-72
2023/03/18 05:47:33;;;;;;;25.23;16.83;;;10.70;99.90;;;;;;5096347;28;20176;-72
2023/03/18 05:50:01;;;;;;;23.87;17.00;;;10.70;99.90;;;;;;5095686;28;20168;-71
2023/03/18 05:52:27;;;;;;;21.37;16.87;;;10.70;99.90;;;;;;5061642;28;20172;-71
2023/03/18 05:54:53;;;;;;;22.30;16.77;;;10.70;99.90;;;;;;5095687;28;20183;-72
2023/03/18 05:57:19;;;;;;;21.47;16.73;;;10.70;99.90;;;;;;5095944;28;20254;-72
2023/03/18 05:59:45;;;;;;;21.20;17.13;;;10.70;99.90;;;;;;5095616;28;20180;-71
2023/03/18 06:02:11;;;;;;;23.53;17.00;;;10.70;99.90;;;;;;5095887;28;20199;-71
2023/03/18 06:04:37;;;;;;;20.47;16.47;;;10.70;99.90;;;;;;5094724;28;20200;-72
2023/03/18 06:07:04;;;;;;;23.67;16.60;;;10.80;99.90;;;;;;5095628;28;20293;-73
2023/03/18 06:09:32;;;;;;;23.37;16.27;;;10.80;99.90;;;;;;5095952;28;20778;-71
2023/03/18 06:11:58;;;;;;;23.00;15.97;;;10.90;99.90;;;;;;5095467;28;20243;-71
2023/03/18 06:14:28;;;;;;;20.60;15.40;;;11.00;99.90;;;;;;5095418;28;20164;-72
2023/03/18 06:16:58;;;;;;;21.07;15.63;;;11.00;99.90;;;;;;5095421;28;20196;-72
2023/03/18 06:19:24;;;;;;;20.67;15.30;;;11.00;99.90;;;;;;5095175;28;20164;-72
2023/03/18 06:21:51;;;;;;;20.50;15.57;;;11.00;99.90;;;;;;5095419;28;20215;-72
2023/03/18 06:24:17;;;;;;;20.40;15.00;;;11.00;99.90;;;;;;5095303;28;20191;-71
2023/03/18 06:26:43;;;;;;;18.20;14.93;;;11.10;99.90;;;;;;5076914;28;20176;-72
2023/03/18 06:29:09;;;;;;;19.53;14.87;;;11.10;99.90;;;;;;5095542;28;20206;-72
2023/03/18 06:31:36;;;;;;;19.23;14.93;;;11.20;99.90;;;;;;5095207;28;20203;-72
2023/03/18 06:34:03;;;;;;;20.03;14.70;;;11.30;99.90;;;;;;5095066;28;20255;-71
2023/03/18 06:36:29;;;;;;;17.10;14.67;;;11.30;99.90;;;;;;5095410;28;20195;-71
2023/03/18 06:38:55;;;;;;;22.07;15.03;;;11.40;99.90;;;;;;5094998;28;20658;-72
2023/03/18 06:41:20;;;;;;;18.00;14.37;;;11.50;99.90;;;;;;5076690;28;20175;-72
2023/03/18 06:43:49;;;;;;;20.03;14.57;;;11.60;99.90;;;;;;5094893;28;20551;-72
2023/03/18 06:46:16;;;;;;;15.10;13.30;;;11.50;99.90;;;;;;5094934;28;20290;-72
2023/03/18 06:48:41;;;;;;;16.33;13.40;;;11.50;99.90;;;;;;5094730;28;20182;-73
2023/03/18 06:51:07;;;;;;;16.80;13.07;;;11.50;99.90;;;;;;5094812;28;20176;-72
2023/03/18 06:53:35;;;;;;;16.10;13.23;;;11.60;99.90;;;;;;5094569;28;20266;-73
2023/03/18 06:56:02;;;;;;;16.23;12.97;;;11.90;99.90;;;;;;5094976;28;20183;-73
2023/03/18 06:58:27;;;;;;;14.93;11.63;;;12.40;99.90;;;;;;5095171;28;21096;-74
2023/03/18 07:00:53;;;;;;;12.47;11.17;;;13.10;99.90;;;;;;5076223;28;20176;-74
2023/03/18 07:03:18;;;;;;;13.73;11.00;;;14.00;88.50;;;;;;5094466;28;20251;-73
2023/03/18 07:05:44;;;;;;;11.77;10.07;;;14.40;61.10;;;;;;5094239;28;20207;-73
2023/03/18 07:08:10;;;;;;;11.83;9.47;;;14.70;50.00;;;;;;5094914;28;20501;-74
2023/03/18 07:10:35;;;;;;;10.80;9.90;;;15.80;18.50;;;;;;5094568;28;20199;-74
2023/03/18 07:13:01;;;;;;;10.67;9.00;;;16.90;1.00;;;;;;5094222;28;20624;-75
2023/03/18 07:15:27;;;;;;;10.17;8.90;;;17.90;1.00;;;;;;5094328;28;20318;-75
2023/03/18 07:17:53;;;;;;;9.15;8.25;;;19.10;1.00;;;;;;5074700;28;20164;-74
2023/03/18 07:20:21;;;;;;;8.90;8.00;;;19.40;1.00;;;;;;5094512;28;20513;-75
2023/03/18 07:22:47;;;;;;;8.65;7.53;;;19.20;1.00;;;;;;5094202;28;20160;-75
2023/03/18 07:25:13;;;;;;;8.85;8.05;;;19.90;1.00;;;;;;5094108;28;20211;-75
2023/03/18 07:27:39;;;;;;;7.30;6.60;;;20.80;99.90;;;;;;5094291;28;20184;-74
2023/03/18 07:30:08;;;;;;;8.07;7.32;;;20.30;99.90;;;;;;5093928;28;20229;-72
2023/03/18 07:32:35;;;;;;;10.02;7.68;;;19.60;1.00;;;;;;5094058;28;20171;-72
2023/03/18 07:35:03;;;;;;;8.15;7.45;;;18.90;1.00;;;;;;5094411;28;20183;-73
2023/03/18 07:37:29;;;;;;;8.57;7.60;;;18.10;1.00;;;;;;5093982;28;20268;-74
2023/03/18 07:39:55;;;;;;;8.33;7.50;;;17.00;1.00;;;;;;5093662;28;20167;-72
2023/03/18 07:42:20;;;;;;;9.33;7.73;;;16.00;1.00;;;;;;5093939;28;20182;-74
2023/03/18 07:44:46;;;;;;;9.33;8.43;;;15.40;1.00;;;;;;5093313;28;20208;-74
2023/03/18 07:47:13;;;;;;;8.67;7.77;;;15.10;7.10;;;;;;5093390;28;20175;-74
2023/03/18 07:49:40;;;;;;;9.83;8.60;;;14.60;23.10;;;;;;5093755;28;20192;-73
2023/03/18 07:52:06;;;;;;;8.97;8.17;;;14.40;33.20;;;;;;5093541;28;20160;-73
2023/03/18 07:54:32;;;;;;;9.20;8.20;;;14.20;37.80;;;;;;5093094;28;20176;-74
2023/03/18 07:56:57;;;;;;;9.10;7.63;;;14.10;51.10;;;;;;5093936;28;20511;-73
2023/03/18 07:59:23;;;;;;;8.27;7.47;;;14.90;30.40;;;;;;5074923;28;20633;-75
2023/03/18 08:01:49;;;;;;;8.10;7.30;;;15.30;7.60;;;;;;5074823;28;20214;-74
2023/03/18 08:04:15;;;;;;;8.20;7.23;;;15.70;13.50;;;;;;5093239;28;20576;-75
2023/03/18 08:06:42;;;;;;;9.03;8.13;;;16.10;1.00;;;;;;5093449;28;20241;-74
2023/03/18 08:09:07;;;;;;;7.93;7.10;;;16.60;1.00;;;;;;5093513;28;20168;-75
2023/03/18 08:11:33;;;;;;;8.10;7.30;;;16.50;1.00;;;;;;5092925;28;20237;-75
2023/03/18 08:13:59;;;;;;;7.60;6.80;;;16.20;1.00;;;;;;5075266;28;20172;-74
2023/03/18 08:16:25;;;;;;;7.53;6.90;;;15.90;1.00;;;;;;5092431;28;20632;-74
2023/03/18 08:18:52;;;;;;;7.37;6.67;;;15.60;1.00;;;;;;5092992;28;20168;-74
2023/03/18 08:21:18;;;;;;;7.73;7.00;;;15.10;7.70;;;;;;5074877;28;20274;-74
2023/03/18 08:23:44;;;;;;;8.50;6.50;;;14.70;17.40;;;;;;5075239;28;20266;-75
2023/03/18 08:26:10;;;;;;;7.60;6.90;;;14.60;28.30;;;;;;5093278;28;20302;-74
2023/03/18 08:28:37;;;;;;;8.30;6.80;;;14.30;35.90;;;;;;5074726;28;20164;-74
2023/03/18 08:31:04;;;;;;;7.30;6.53;;;14.30;40.20;;;;;;5092585;28;20213;-73
2023/03/18 08:33:30;;;;;;;10.07;7.50;;;14.10;46.30;;;;;;5092942;28;20266;-74
2023/03/18 08:35:56;;;;;;;8.20;6.50;;;14.30;45.80;;;;;;5092901;28;20167;-73
2023/03/18 08:38:23;;;;;;;7.87;6.60;;;14.20;38.80;;;;;;5093147;28;20168;-75
2023/03/18 08:40:50;;;;;;;8.23;7.30;;;14.20;44.20;;;;;;5092882;28;20219;-74
2023/03/18 08:43:16;;;;;;;7.50;6.80;;;14.40;41.30;;;;;;5092698;28;20217;-73
2023/03/18 08:45:42;;;;;;;8.77;6.50;;;14.30;41.10;;;;;;5092647;28;20537;-74
2023/03/18 08:48:08;;;;;;;7.73;6.53;;;14.40;45.50;;;;;;5092874;28;20258;-75
2023/03/18 08:50:35;;;;;;;7.10;6.40;;;14.70;38.40;;;;;;5092506;28;20172;-75
2023/03/18 08:53:02;;;;;;;7.20;6.47;;;15.10;27.30;;;;;;5093141;28;20175;-74
2023/03/18 08:55:33;;;;;;;7.57;6.00;;;15.50;16.00;;;;;;5092828;28;20168;-74
2023/03/18 08:57:59;;;;;;;7.20;6.50;;;15.50;5.80;;;;;;5092817;28;20164;-74
2023/03/18 09:00:26;;;;;;;8.63;6.10;;;15.60;1.00;;;;;;5092831;28;20658;-74
2023/03/18 09:02:53;;;;;;;7.23;6.40;;;15.60;3.80;;;;;;5092704;28;20184;-74
2023/03/18 09:05:19;;;;;;;7.00;6.00;;;15.50;2.70;;;;;;5092304;28;20658;-75
2023/03/18 09:07:45;;;;;;;7.03;5.67;;;15.30;9.90;;;;;;5093299;28;20173;-73
2023/03/18 09:10:13;;;;;;;6.17;5.53;;;15.20;12.10;;;;;;5092375;28;20172;-75
2023/03/18 09:12:42;;;;;;;6.63;6.03;;;15.00;13.90;;;;;;5091907;28;20168;-75
2023/03/18 09:15:10;;;;;;;7.43;6.43;;;15.00;15.80;;;;;;5092504;28;20227;-74
2023/03/18 09:17:39;;;;;;;7.03;5.67;;;15.00;20.70;;;;;;5092611;28;20194;-74
2023/03/18 09:20:16;;;;;;;6.03;5.40;;;14.70;16.10;;;;;;5092691;28;20290;-72
2023/03/18 09:22:43;;;;;;;7.93;5.83;;;14.50;27.40;;;;;;5092241;28;20233;-73
2023/03/18 09:25:09;;;;;;;8.60;5.93;;;14.40;30.70;;;;;;5092970;28;20288;-74
2023/03/18 09:27:35;;;;;;;7.93;5.77;;;14.70;28.60;;;;;;5091906;28;20653;-74
2023/03/18 09:30:02;;;;;;;7.07;5.80;;;14.90;25.40;;;;;;5092289;28;20168;-73
2023/03/18 09:32:28;;;;;;;6.33;5.73;;;14.80;22.20;;;;;;5092505;28;20612;-74
2023/03/18 09:34:54;;;;;;;5.87;5.37;;;15.00;20.50;;;;;;5091974;28;20175;-75
2023/03/18 09:37:20;;;;;;;8.93;5.83;;;15.10;17.30;;;;;;5091673;28;20172;-74
2023/03/18 09:39:46;;;;;;;6.80;5.50;;;15.20;13.00;;;;;;5091870;28;20583;-73
2023/03/18 09:42:19;;;;;;;5.67;5.10;;;15.20;12.00;;;;;;5095628;28;20221;-74
2023/03/18 09:44:53;;;;;;;5.63;5.10;;;15.10;8.80;;;;;;5095854;28;20196;-74
2023/03/18 09:47:46;;;;;;;6.13;4.90;;;14.90;13.00;;;;;;5095852;28;20172;-74
2023/03/18 09:51:03;;;;;;;5.13;4.63;;;14.90;11.10;;;;;;5095720;28;20183;-75
2023/03/18 09:53:44;;;;;;;7.83;4.83;;;14.90;13.00;;;;;;5092247;28;20352;-74
2023/03/18 09:56:18;;;;;;;5.87;4.90;;;14.80;13.70;;;;;;5095589;28;20172;-74
2023/03/18 09:58:59;;;;;;;5.27;4.57;;;14.70;14.40;;;;;;5095820;28;20176;-75
2023/03/18 10:01:27;;;;;;;8.53;5.00;;;14.70;15.70;;;;;;5095486;28;20195;-74
2023/03/18 10:04:18;;;;;;;5.50;4.90;;;14.50;18.10;;;;;;5095896;28;20174;-74
2023/03/18 10:06:46;;;;;;;6.20;4.80;;;14.50;19.40;;;;;;5095573;28;20700;-74
2023/03/18 10:09:50;;;;;;;6.83;4.57;;;14.50;21.40;;;;;;5095245;28;20714;-74
2023/03/18 10:12:32;;;;;;;7.97;4.70;;;14.50;20.00;;;;;;5094654;28;20617;-73
2023/03/18 10:15:28;;;;;;;6.03;4.27;;;14.50;23.80;;;;;;5095433;28;20816;-74
2023/03/18 10:18:00;;;;;;;5.50;4.10;;;14.40;23.90;;;;;;5095335;28;20209;-74
2023/03/18 10:20:49;;;;;;;6.27;4.27;;;14.10;32.80;;;;;;5095090;28;20171;-74
2023/03/18 10:23:21;;;;;;;4.77;3.87;;;14.00;36.90;;;;;;5095897;28;20213;-73
2023/03/18 10:25:54;;;;;;;4.63;3.77;;;13.80;47.30;;;;;;5094576;28;20682;-74
2023/03/18 10:28:55;;;;;;;5.37;4.10;;;13.60;54.80;;;;;;5095256;28;20175;-73
2023/03/18 10:31:39;;;;;;;5.17;4.67;;;13.50;59.50;;;;;;5077380;28;20207;-73
2023/03/18 10:34:14;;;;;;;11.27;5.00;;;13.50;61.90;;;;;;5095114;28;20164;-74
2023/03/18 10:36:58;;;;;;;5.23;4.73;;;13.50;65.10;;;;;;5095071;28;20187;-74
2023/03/18 10:39:27;;;;;;;5.67;4.27;;;13.50;60.50;;;;;;5095252;28;20164;-74
2023/03/18 10:41:56;;;;;;;6.87;4.10;;;13.50;63.00;;;;;;5094785;28;20315;-73
2023/03/18 10:44:35;;;;;;;4.47;4.00;;;13.50;60.60;;;;;;5095045;28;20168;-73
2023/03/18 10:47:12;;;;;;;4.50;4.10;;;13.50;63.20;;;;;;5094830;28;20262;-74
2023/03/18 10:50:00;;;;;;;5.73;4.20;;;13.60;59.70;;;;;;5093860;28;20347;-73
2023/03/18 10:52:44;;;;;;;4.10;3.70;;;13.80;53.50;;;;;;5094598;28;20233;-73
2023/03/18 10:55:21;;;;;;;6.73;4.00;;;13.90;46.80;;;;;;5094445;28;20168;-73
2023/03/18 10:57:47;;;;;;;4.90;3.90;;;14.10;43.10;;;;;;5094722;28;20216;-74
2023/03/18 11:00:39;;;;;;;5.60;3.63;;;14.20;38.30;;;;;;5094551;28;20246;-75
2023/03/18 11:03:05;;;;;;;4.67;3.87;;;14.30;32.90;;;;;;5090440;28;20319;-74
2023/03/18 11:05:34;;;;;;;6.17;3.87;;;14.50;29.40;;;;;;5094590;28;20200;-74
2023/03/18 11:08:25;;;;;;;6.97;3.60;;;15.00;25.10;;;;;;5094621;28;20175;-75
2023/03/18 11:10:50;;;;;;;4.27;2.93;;;16.00;1.50;;;;;;5093524;28;20263;-75
2023/03/18 11:13:18;;;;;;;3.70;2.97;;;16.50;1.00;;;;;;5076127;28;20730;-74
2023/03/18 11:15:51;;;;;;;3.10;2.80;;;16.90;1.00;;;;;;5094498;28;20654;-74
2023/03/18 11:18:23;;;;;;;4.60;2.80;;;17.20;1.00;;;;;;5094032;28;20624;-74
2023/03/18 11:21:01;;;;;;;4.40;3.33;;;17.30;1.00;;;;;;5093937;28;20168;-75
2023/03/18 11:26:47;;;;;;;4.03;2.83;;;17.10;1.00;;;;;;5011783;28;20195;-75
2023/03/18 11:29:18;;;;;;;4.65;2.45;;;17.50;1.00;;;;;;5011907;28;20183;-75
2023/03/18 11:31:57;;;;;;;3.53;2.65;;;18.00;1.00;;;;;;5011644;28;20166;-74
2023/03/18 11:34:27;;;;;;;4.70;2.17;;;18.80;1.00;;;;;;5011851;28;20417;-74
2023/03/18 11:37:03;;;;;;;2.45;2.25;;;19.00;1.00;;;;;;5011696;28;20190;-74
2023/03/18 11:39:36;;;;;;;2.15;1.98;;;18.90;1.00;;;;;;5011699;28;20239;-75
2023/03/18 11:42:18;;;;;;;2.10;1.90;;;19.10;1.00;;;;;;5010976;28;20236;-75
2023/03/18 11:44:45;;;;;;;3.53;2.00;;;18.80;1.00;;;;;;5011785;28;20368;-74
2023/03/18 11:47:27;;;;;;;2.40;2.20;;;18.90;1.00;;;;;;5011896;28;20175;-74
2023/03/18 11:49:53;;;;;;;3.45;2.47;;;18.90;1.00;;;;;;5011250;28;20190;-75
2023/03/18 11:52:57;;;;;;;2.28;2.08;;;19.10;1.00;;;;;;5010642;28;20179;-75
2023/03/18 11:55:42;;;;;;;3.03;1.90;;;18.80;1.00;;;;;;4972180;28;20179;-75
2023/03/18 11:58:10;;;;;;;3.70;1.92;;;17.90;1.00;;;;;;4993901;28;20224;-75
2023/03/18 12:00:41;;;;;;;3.20;2.10;;;17.90;1.00;;;;;;5011927;28;20170;-76
2023/03/18 12:03:30;;;;;;;2.38;2.17;;;18.20;1.00;;;;;;5083486;28;20183;-76
2023/03/18 12:06:02;;;;;;;3.42;2.20;;;18.40;1.00;;;;;;5092294;28;20203;-75
2023/03/18 12:08:55;;;;;;;2.15;1.92;;;18.50;1.00;;;;;;5075095;28;20175;-75
2023/03/18 12:11:37;;;;;;;1.90;1.50;;;18.80;1.00;;;;;;5093377;28;20634;-76
2023/03/18 12:14:17;;;;;;;3.88;3.42;;;19.00;1.00;;;;;;5093356;28;20168;-75
2023/03/18 12:16:52;;;;;;;2.58;1.75;;;19.50;99.90;;;;;;5092692;28;20306;-75
2023/03/18 12:19:27;;;;;;;1.98;1.60;;;19.40;99.90;;;;;;5093159;28;20183;-76
2023/03/18 12:22:03;;;;;;;2.33;1.70;;;19.40;99.90;;;;;;5075229;28;20241;-75
2023/03/18 12:25:00;;;;;;;3.38;2.15;;;19.10;99.90;;;;;;5092918;28;20195;-75
2023/03/18 12:27:31;;;;;;;1.70;1.60;;;18.50;1.00;;;;;;5020532;28;20186;-74
2023/03/18 12:30:21;;;;;;;2.22;1.77;;;17.90;1.00;;;;;;5092796;28;20615;-75
2023/03/18 12:33:03;;;;;;;2.40;1.90;;;17.60;1.00;;;;;;5092706;28;20194;-74
2023/03/18 12:35:35;;;;;;;2.47;2.27;;;17.30;1.00;;;;;;5092475;28;20249;-75
2023/03/18 12:38:20;;;;;;;2.60;2.10;;;17.20;1.00;;;;;;5092416;28;20324;-75
2023/03/18 12:41:08;;;;;;;3.63;2.00;;;17.00;1.00;;;;;;5092370;28;20207;-74
2023/03/18 12:43:46;;;;;;;2.50;2.10;;;16.90;1.00;;;;;;5091901;28;20171;-74
2023/03/18 12:46:30;;;;;;;3.03;2.17;;;16.90;1.00;;;;;;5092706;28;20551;-76
2023/03/18 12:49:13;;;;;;;2.37;1.90;;;16.70;1.00;;;;;;5093208;28;20160;-75
2023/03/18 12:51:57;;;;;;;4.20;1.87;;;16.80;1.00;;;;;;5091362;28;20160;-75
2023/03/18 12:54:29;;;;;;;2.67;2.37;;;16.90;1.00;;;;;;5092172;28;20576;-75